createdAt,value
2019-02-24T00:00:32.629Z,9.93
2019-02-24T00:02:36.500Z,10.03
2019-02-24T00:04:40.364Z,9.40
2019-02-24T00:06:44.162Z,9.83
2019-02-24T00:08:48.068Z,10.30
2019-02-24T00:10:51.909Z,9.83
2019-02-24T00:12:55.558Z,11.47
2019-02-24T00:14:59.255Z,10.30
2019-02-24T00:17:03.002Z,10.53
2019-02-24T00:19:06.812Z,10.20
2019-02-24T00:21:10.503Z,9.93
2019-02-24T00:23:14.317Z,11.70
2019-02-24T00:25:19.095Z,10.17
2019-02-24T00:27:22.750Z,10.43
2019-02-24T00:29:26.635Z,10.30
2019-02-24T00:31:30.383Z,11.37
2019-02-24T00:33:33.995Z,10.00
2019-02-24T00:35:37.814Z,10.30
2019-02-24T00:37:42.513Z,11.87
2019-02-24T00:39:46.406Z,10.53
2019-02-24T00:41:50.058Z,11.00
2019-02-24T00:43:53.801Z,10.47
2019-02-24T00:45:57.468Z,11.03
2019-02-24T00:48:01.224Z,10.63
2019-02-24T00:50:07.499Z,10.53
2019-02-24T00:52:11.125Z,8.53
2019-02-24T00:54:14.877Z,8.90
2019-02-24T00:56:18.604Z,9.50
2019-02-24T00:58:22.413Z,8.23
2019-02-24T01:00:27.403Z,8.20
2019-02-24T01:02:31.243Z,8.80
2019-02-24T01:04:35.053Z,8.20
2019-02-24T01:06:38.795Z,8.27
2019-02-24T01:08:42.599Z,8.13
2019-02-24T01:10:46.351Z,7.50
2019-02-24T01:12:50.089Z,8.50
2019-02-24T01:14:53.786Z,8.23
2019-02-24T01:16:57.596Z,8.30
2019-02-24T01:19:01.463Z,8.47
2019-02-24T01:21:05.275Z,8.13
2019-02-24T01:23:09.086Z,7.90
2019-02-24T01:25:12.869Z,8.70
2019-02-24T01:27:16.616Z,9.47
2019-02-24T01:29:21.434Z,8.47
2019-02-24T01:31:25.197Z,9.03
2019-02-24T01:33:29.014Z,7.80
2019-02-24T01:35:32.914Z,10.17
2019-02-24T01:37:36.662Z,9.73
2019-02-24T01:39:40.515Z,9.00
2019-02-24T01:41:44.298Z,11.70
2019-02-24T01:43:48.157Z,12.33
2019-02-24T01:45:51.994Z,12.23
2019-02-24T01:47:56.051Z,13.03
2019-02-24T01:49:59.816Z,11.13
2019-02-24T01:52:03.930Z,11.27
2019-02-24T01:54:07.865Z,13.20
2019-02-24T01:56:11.730Z,10.20
2019-02-24T01:58:15.671Z,12.67
2019-02-24T02:00:19.388Z,12.00
2019-02-24T02:02:23.139Z,11.43
2019-02-24T02:04:27.039Z,12.40
2019-02-24T02:06:30.691Z,10.00
2019-02-24T02:08:34.371Z,9.60
2019-02-24T02:10:38.427Z,9.37
2019-02-24T02:12:42.069Z,9.53
2019-02-24T02:14:45.730Z,8.93
2019-02-24T02:16:49.568Z,8.20
2019-02-24T02:18:53.366Z,8.57
2019-02-24T02:20:58.363Z,8.53
2019-02-24T02:23:02.158Z,9.07
2019-02-24T02:25:09.595Z,8.33
2019-02-24T02:27:13.404Z,9.47
2019-02-24T02:29:17.183Z,8.30
2019-02-24T02:31:21.029Z,8.77
2019-02-24T02:33:24.685Z,8.53
2019-02-24T02:35:28.480Z,7.87
2019-02-24T02:37:32.302Z,7.83
2019-02-24T02:39:36.137Z,9.33
2019-02-24T02:41:40.011Z,8.37
2019-02-24T02:43:43.769Z,8.00
2019-02-24T02:45:47.695Z,8.77
2019-02-24T02:47:51.583Z,9.70
2019-02-24T02:49:55.249Z,8.73
2019-02-24T02:51:59.120Z,8.60
2019-02-24T02:54:02.763Z,8.10
2019-02-24T02:56:06.423Z,8.67
2019-02-24T02:58:10.091Z,8.77
2019-02-24T03:00:25.754Z,8.77
2019-02-24T03:02:29.515Z,7.80
2019-02-24T03:04:33.241Z,8.83
2019-02-24T03:06:38.609Z,7.73
2019-02-24T03:08:46.295Z,7.53
2019-02-24T03:10:49.978Z,8.67
2019-02-24T03:12:53.856Z,7.97
2019-02-24T03:14:57.620Z,8.73
2019-02-24T03:17:01.449Z,8.50
2019-02-24T03:19:05.130Z,9.13
2019-02-24T03:21:08.750Z,9.33
2019-02-24T03:23:12.512Z,8.33
2019-02-24T03:25:16.265Z,9.27
2019-02-24T03:27:20.148Z,9.53
2019-02-24T03:29:23.868Z,9.60
2019-02-24T03:31:27.675Z,8.73
2019-02-24T03:33:31.541Z,8.97
2019-02-24T03:35:35.290Z,9.90
2019-02-24T03:37:39.006Z,9.60
2019-02-24T03:39:42.814Z,9.33
2019-02-24T03:41:46.535Z,9.00
2019-02-24T03:43:50.348Z,9.23
2019-02-24T03:45:54.080Z,8.50
2019-02-24T03:47:57.964Z,10.03
2019-02-24T03:50:01.701Z,8.73
2019-02-24T03:52:05.398Z,8.70
2019-02-24T03:54:09.287Z,9.60
2019-02-24T03:56:12.996Z,9.43
2019-02-24T03:58:16.751Z,8.50
2019-02-24T04:00:21.203Z,8.40
2019-02-24T04:02:25.070Z,9.17
2019-02-24T04:04:28.898Z,9.33
2019-02-24T04:06:32.789Z,8.77
2019-02-24T04:08:36.460Z,10.07
2019-02-24T04:10:40.149Z,8.00
2019-02-24T04:12:44.236Z,9.40
2019-02-24T04:14:47.938Z,9.20
2019-02-24T04:16:51.534Z,9.40
2019-02-24T04:18:55.274Z,9.27
2019-02-24T04:20:58.961Z,9.43
2019-02-24T04:23:02.762Z,9.43
2019-02-24T04:25:06.509Z,10.13
2019-02-24T04:27:11.817Z,8.40
2019-02-24T04:29:24.374Z,8.57
2019-02-24T04:31:20.922Z,9.60
2019-02-24T04:33:24.617Z,7.83
2019-02-24T04:35:29.338Z,10.50
2019-02-24T04:37:33.032Z,9.30
2019-02-24T04:39:36.733Z,9.40
2019-02-24T04:41:40.386Z,8.77
2019-02-24T04:43:44.112Z,9.30
2019-02-24T04:45:47.710Z,10.53
2019-02-24T04:47:51.483Z,10.07
2019-02-24T04:49:55.200Z,9.30
2019-02-24T04:51:58.981Z,9.00
2019-02-24T04:54:02.831Z,10.30
2019-02-24T04:56:06.661Z,10.17
2019-02-24T04:58:10.377Z,9.40
2019-02-24T05:00:14.207Z,10.53
2019-02-24T05:02:17.882Z,10.03
2019-02-24T05:04:21.756Z,8.80
2019-02-24T05:06:25.461Z,9.20
2019-02-24T05:08:29.072Z,9.40
2019-02-24T05:10:32.751Z,9.27
2019-02-24T05:12:36.499Z,8.83
2019-02-24T05:14:40.203Z,9.03
2019-02-24T05:16:43.817Z,9.60
2019-02-24T05:18:47.464Z,7.90
2019-02-24T05:20:51.215Z,8.70
2019-02-24T05:22:54.946Z,7.80
2019-02-24T05:24:58.753Z,8.43
2019-02-24T05:27:02.383Z,7.80
2019-02-24T05:29:06.138Z,8.90
2019-02-24T05:31:09.895Z,8.63
2019-02-24T05:33:13.655Z,8.20
2019-02-24T05:35:17.698Z,8.93
2019-02-24T05:37:21.464Z,7.87
2019-02-24T05:39:25.189Z,8.53
2019-02-24T05:41:28.990Z,9.23
2019-02-24T05:43:32.869Z,9.23
2019-02-24T05:45:36.651Z,9.10
2019-02-24T05:47:40.460Z,8.80
2019-02-24T05:49:44.165Z,9.67
2019-02-24T05:51:48.080Z,9.00
2019-02-24T05:53:51.910Z,7.53
2019-02-24T05:55:55.751Z,8.60
2019-02-24T05:57:59.467Z,7.80
2019-02-24T06:00:05.166Z,7.83
2019-02-24T06:02:08.851Z,8.37
2019-02-24T06:04:12.794Z,10.10
2019-02-24T06:06:16.798Z,8.20
2019-02-24T06:08:21.957Z,8.87
2019-02-24T06:10:26.689Z,9.20
2019-02-24T06:12:31.540Z,8.47
2019-02-24T06:14:35.272Z,8.90
2019-02-24T06:16:39.494Z,9.80
2019-02-24T06:18:43.122Z,9.27
2019-02-24T06:20:46.999Z,7.80
2019-02-24T06:22:50.863Z,9.33
2019-02-24T06:24:54.519Z,9.37
2019-02-24T06:26:58.844Z,10.40
2019-02-24T06:29:02.619Z,8.87
2019-02-24T06:31:06.354Z,9.37
2019-02-24T06:33:10.114Z,9.77
2019-02-24T06:35:13.852Z,9.60
2019-02-24T06:37:17.563Z,9.10
2019-02-24T06:39:21.336Z,9.93
2019-02-24T06:41:25.036Z,10.37
2019-02-24T06:43:28.719Z,9.47
2019-02-24T06:45:32.431Z,10.17
2019-02-24T06:47:39.143Z,9.80
2019-02-24T06:49:42.864Z,8.90
2019-02-24T06:51:46.667Z,10.03
2019-02-24T06:53:50.459Z,9.70
2019-02-24T06:55:54.109Z,9.80
2019-02-24T06:57:58.109Z,9.27
2019-02-24T07:00:01.799Z,9.90
2019-02-24T07:02:05.641Z,9.90
2019-02-24T07:04:09.529Z,10.07
2019-02-24T07:06:13.179Z,9.03
2019-02-24T07:08:16.899Z,9.00
2019-02-24T07:10:20.671Z,8.90
2019-02-24T07:12:24.460Z,10.30
2019-02-24T07:14:28.256Z,9.63
2019-02-24T07:16:31.995Z,9.23
2019-02-24T07:18:36.066Z,9.30
2019-02-24T07:20:39.864Z,10.00
2019-02-24T07:22:43.624Z,8.90
2019-02-24T07:24:47.416Z,10.07
2019-02-24T07:26:51.214Z,9.37
2019-02-24T07:28:54.996Z,9.93
2019-02-24T07:30:58.839Z,8.90
2019-02-24T07:33:02.572Z,8.43
2019-02-24T07:35:06.796Z,8.90
2019-02-24T07:37:13.072Z,10.40
2019-02-24T07:39:15.945Z,8.90
2019-02-24T07:41:19.612Z,8.40
2019-02-24T07:43:23.457Z,8.30
2019-02-24T07:45:27.202Z,8.60
2019-02-24T07:47:31.170Z,9.07
2019-02-24T07:49:34.833Z,8.40
2019-02-24T07:51:38.727Z,8.60
2019-02-24T07:53:42.601Z,9.00
2019-02-24T07:55:46.423Z,8.80
2019-02-24T07:57:50.192Z,7.60
2019-02-24T08:00:07.219Z,8.07
2019-02-24T08:02:14.348Z,7.90
2019-02-24T08:04:18.307Z,8.70
2019-02-24T08:06:22.525Z,8.03
2019-02-24T08:08:26.400Z,7.43
2019-02-24T08:10:30.282Z,8.03
2019-02-24T08:12:34.033Z,7.63
2019-02-24T08:14:37.815Z,8.50
2019-02-24T08:16:41.621Z,8.97
2019-02-24T08:18:49.578Z,8.50
2019-02-24T08:20:50.829Z,9.33
2019-02-24T08:22:55.496Z,8.03
2019-02-24T08:24:59.306Z,8.27
2019-02-24T08:27:03.079Z,8.43
2019-02-24T08:29:06.848Z,8.80
2019-02-24T08:31:10.522Z,8.53
2019-02-24T08:33:14.232Z,7.83
2019-02-24T08:35:18.470Z,8.60
2019-02-24T08:37:22.216Z,8.60
2019-02-24T08:39:26.266Z,7.70
2019-02-24T08:41:30.137Z,8.60
2019-02-24T08:43:33.997Z,6.90
2019-02-24T08:45:49.248Z,7.80
2019-02-24T08:47:53.366Z,7.80
2019-02-24T08:49:57.105Z,8.07
2019-02-24T08:52:00.902Z,7.00
2019-02-24T08:54:04.615Z,6.50
2019-02-24T08:56:08.792Z,6.73
2019-02-24T08:58:12.747Z,7.57
2019-02-24T09:00:16.762Z,8.07
2019-02-24T09:02:20.584Z,6.67
2019-02-24T09:04:24.396Z,6.60
2019-02-24T09:06:28.150Z,6.77
2019-02-24T09:08:31.795Z,5.77
2019-02-24T09:10:48.997Z,6.20
2019-02-24T09:12:52.852Z,6.43
2019-02-24T09:14:56.561Z,5.93
2019-02-24T09:17:00.192Z,6.87
2019-02-24T09:19:03.842Z,5.57
2019-02-24T09:21:07.610Z,5.67
2019-02-24T09:23:11.268Z,5.50
2019-02-24T09:25:15.154Z,5.50
2019-02-24T09:27:18.983Z,6.20
2019-02-24T09:29:22.708Z,5.97
2019-02-24T09:31:26.483Z,5.17
2019-02-24T09:33:30.136Z,4.37
2019-02-24T09:35:34.000Z,4.50
2019-02-24T09:37:37.804Z,5.30
2019-02-24T09:39:41.511Z,5.27
2019-02-24T09:41:45.283Z,4.60
2019-02-24T09:43:48.955Z,5.10
2019-02-24T09:45:52.635Z,5.23
2019-02-24T09:47:56.328Z,5.00
2019-02-24T09:50:00.043Z,4.60
2019-02-24T09:52:03.852Z,4.47
2019-02-24T09:54:07.444Z,4.63
2019-02-24T09:56:11.194Z,4.43
2019-02-24T09:58:14.898Z,4.00
2019-02-24T10:00:18.621Z,4.40
2019-02-24T10:02:22.387Z,4.30
2019-02-24T10:04:26.101Z,4.53
2019-02-24T10:06:29.749Z,4.30
2019-02-24T10:08:33.678Z,4.23
2019-02-24T10:10:37.276Z,5.00
2019-02-24T10:12:41.072Z,4.33
2019-02-24T10:14:44.716Z,3.57
2019-02-24T10:16:48.421Z,4.20
2019-02-24T10:18:52.155Z,4.23
2019-02-24T10:20:55.864Z,4.20
2019-02-24T10:22:59.616Z,3.93
2019-02-24T10:25:03.271Z,4.00
2019-02-24T10:27:07.079Z,3.90
2019-02-24T10:29:10.808Z,4.00
2019-02-24T10:31:19.828Z,3.80
2019-02-24T10:33:19.939Z,3.43
2019-02-24T10:35:23.514Z,3.90
2019-02-24T10:37:27.194Z,3.70
2019-02-24T10:39:30.876Z,4.90
2019-02-24T10:41:34.611Z,4.33
2019-02-24T10:43:38.250Z,4.03
2019-02-24T10:45:42.029Z,4.10
2019-02-24T10:47:45.863Z,3.77
2019-02-24T10:49:49.592Z,4.57
2019-02-24T10:51:53.365Z,3.37
2019-02-24T10:53:57.016Z,3.90
2019-02-24T10:56:00.662Z,3.90
2019-02-24T10:58:04.336Z,4.23
2019-02-24T11:00:13.605Z,3.83
2019-02-24T11:02:17.325Z,3.73
2019-02-24T11:04:21.052Z,3.67
2019-02-24T11:06:24.906Z,3.77
2019-02-24T11:08:28.645Z,4.03
2019-02-24T11:10:32.212Z,4.30
2019-02-24T11:12:35.824Z,4.17
2019-02-24T11:14:39.478Z,4.57
2019-02-24T11:16:43.040Z,5.00
2019-02-24T11:18:46.684Z,4.67
2019-02-24T11:20:50.258Z,4.47
2019-02-24T11:22:54.057Z,4.50
2019-02-24T11:24:57.715Z,3.50
2019-02-24T11:27:02.908Z,3.97
2019-02-24T11:29:06.670Z,4.00
2019-02-24T11:31:10.394Z,4.50
2019-02-24T11:33:14.135Z,4.00
2019-02-24T11:35:17.986Z,3.47
2019-02-24T11:37:21.639Z,3.93
2019-02-24T11:39:25.385Z,3.93
2019-02-24T11:41:29.208Z,3.63
2019-02-24T11:43:32.913Z,3.90
2019-02-24T11:45:36.706Z,4.00
2019-02-24T11:47:40.505Z,3.60
2019-02-24T11:49:44.259Z,4.00
2019-02-24T11:51:47.848Z,3.50
2019-02-24T11:53:51.611Z,4.53
2019-02-24T11:55:55.421Z,3.60
2019-02-24T11:57:59.096Z,3.90
2019-02-24T12:00:02.788Z,4.10
2019-02-24T12:02:06.538Z,3.20
2019-02-24T12:04:10.312Z,3.70
2019-02-24T12:06:13.971Z,3.70
2019-02-24T12:08:17.635Z,3.50
2019-02-24T12:10:21.514Z,3.33
2019-02-24T12:12:25.135Z,3.30
2019-02-24T12:14:28.826Z,3.30
2019-02-24T12:16:32.904Z,4.37
2019-02-24T12:18:36.622Z,3.70
2019-02-24T12:20:40.368Z,4.23
2019-02-24T12:22:44.107Z,3.83
2019-02-24T12:25:08.510Z,3.80
2019-02-24T12:27:12.245Z,4.43
2019-02-24T12:29:16.009Z,4.00
2019-02-24T12:31:19.849Z,4.00
2019-02-24T12:33:23.646Z,3.97
2019-02-24T12:35:27.398Z,4.40
2019-02-24T12:37:31.150Z,4.07
2019-02-24T12:39:34.948Z,3.70
2019-02-24T12:41:38.727Z,3.40
2019-02-24T12:43:42.389Z,3.80
2019-02-24T12:45:46.251Z,3.90
2019-02-24T12:47:50.003Z,4.40
2019-02-24T12:50:02.740Z,4.07
2019-02-24T12:51:59.345Z,3.60
2019-02-24T12:54:03.077Z,4.23
2019-02-24T12:56:06.850Z,3.83
2019-02-24T12:58:10.586Z,3.60
2019-02-24T13:00:25.516Z,3.77
2019-02-24T13:02:29.209Z,3.70
2019-02-24T13:04:33.057Z,3.70
2019-02-24T13:06:36.785Z,3.90
2019-02-24T13:08:40.545Z,3.80
2019-02-24T13:10:44.245Z,4.30
2019-02-24T13:12:47.946Z,4.73
2019-02-24T13:14:51.803Z,4.90
2019-02-24T13:16:55.593Z,4.20
2019-02-24T13:18:59.379Z,4.13
2019-02-24T13:21:03.179Z,4.17
2019-02-24T13:23:06.986Z,4.40
2019-02-24T13:25:12.263Z,5.10
2019-02-24T13:27:16.074Z,4.50
2019-02-24T13:29:19.727Z,4.10
2019-02-24T13:31:23.643Z,4.30
2019-02-24T13:33:27.303Z,4.50
2019-02-24T13:35:31.044Z,4.60
2019-02-24T13:37:34.729Z,3.50
2019-02-24T13:39:38.795Z,4.63
2019-02-24T13:41:42.544Z,4.13
2019-02-24T13:43:46.128Z,4.10
2019-02-24T13:45:50.038Z,3.77
2019-02-24T13:47:53.768Z,4.03
2019-02-24T13:49:57.558Z,4.40
2019-02-24T13:52:01.478Z,4.70
2019-02-24T13:54:05.336Z,4.63
2019-02-24T13:56:09.351Z,4.40
2019-02-24T13:58:14.347Z,4.43
2019-02-24T14:00:25.054Z,4.50
2019-02-24T14:02:28.840Z,4.30
2019-02-24T14:04:32.597Z,4.70
2019-02-24T14:06:36.448Z,4.00
2019-02-24T14:08:40.488Z,4.20
2019-02-24T14:10:44.495Z,4.20
2019-02-24T14:13:10.770Z,4.50
2019-02-24T14:15:12.209Z,4.33
2019-02-24T14:17:16.169Z,3.73
2019-02-24T14:19:19.863Z,3.97
2019-02-24T14:21:23.876Z,4.23
2019-02-24T14:23:28.376Z,4.37
2019-02-24T14:28:21.157Z,3.87
2019-02-24T14:30:25.047Z,4.40
2019-02-24T14:32:33.031Z,4.00
2019-02-24T14:34:34.282Z,4.20
2019-02-24T14:36:37.884Z,3.80
2019-02-24T14:38:42.607Z,4.20
2019-02-24T14:40:46.521Z,3.97
2019-02-24T14:42:50.292Z,4.10
2019-02-24T14:44:54.062Z,3.80
2019-02-24T14:46:57.855Z,4.60
2019-02-24T14:49:01.667Z,3.80
2019-02-24T14:51:07.144Z,4.10
2019-02-24T14:53:11.151Z,4.57
2019-02-24T14:55:15.616Z,3.90
2019-02-24T14:57:19.432Z,4.57
2019-02-24T14:59:23.231Z,4.50
2019-02-24T15:01:26.990Z,4.80
2019-02-24T15:03:30.782Z,4.50
2019-02-24T15:05:34.586Z,4.97
2019-02-24T15:07:38.578Z,4.57
2019-02-24T15:09:46.539Z,4.87
2019-02-24T15:11:50.333Z,4.40
2019-02-24T15:13:54.169Z,4.37
2019-02-24T15:15:57.938Z,4.37
2019-02-24T15:18:04.642Z,3.87
2019-02-24T15:20:11.767Z,4.47
2019-02-24T15:22:15.584Z,4.00
2019-02-24T15:24:19.833Z,3.87
2019-02-24T15:26:23.657Z,4.10
2019-02-24T15:28:28.061Z,3.90
2019-02-24T15:30:39.364Z,4.17
2019-02-24T15:32:51.179Z,4.23
2019-02-24T15:34:48.762Z,4.50
2019-02-24T15:36:52.635Z,5.33
2019-02-24T15:39:12.773Z,4.17
2019-02-24T15:41:57.227Z,3.70
2019-02-24T15:43:46.379Z,4.17
2019-02-24T15:45:50.086Z,4.97
2019-02-24T15:47:53.919Z,4.00
2019-02-24T15:49:57.998Z,4.27
2019-02-24T15:52:17.897Z,4.13
2019-02-24T15:54:20.206Z,3.97
2019-02-24T15:56:24.226Z,3.90
2019-02-24T15:58:28.368Z,3.90
2019-02-24T16:00:32.250Z,4.20
2019-02-24T16:02:35.903Z,4.40
2019-02-24T16:04:39.701Z,4.43
2019-02-24T16:06:43.627Z,4.00
2019-02-24T16:08:47.439Z,4.03
2019-02-24T16:10:51.325Z,4.10
2019-02-24T16:12:55.011Z,4.00
2019-02-24T16:14:58.802Z,4.07
2019-02-24T16:17:02.666Z,5.03
2019-02-24T16:19:06.529Z,4.70
2019-02-24T16:21:10.496Z,5.00
2019-02-24T16:23:14.265Z,4.73
2019-02-24T16:25:18.090Z,4.67
2019-02-24T16:27:22.110Z,4.33
2019-02-24T16:29:26.353Z,4.30
2019-02-24T16:31:30.183Z,4.33
2019-02-24T16:33:34.338Z,4.20
2019-02-24T16:35:38.352Z,5.47
2019-02-24T16:37:42.221Z,5.40
2019-02-24T16:39:46.245Z,5.30
2019-02-24T16:41:50.849Z,4.67
2019-02-24T16:43:54.920Z,4.33
2019-02-24T16:45:59.088Z,4.40
2019-02-24T16:48:02.936Z,5.20
2019-02-24T16:50:09.861Z,4.67
2019-02-24T16:52:14.074Z,5.00
2019-02-24T16:54:17.996Z,5.03
2019-02-24T16:56:21.586Z,4.40
2019-02-24T16:58:25.600Z,4.77
2019-02-24T17:00:29.960Z,4.70
2019-02-24T17:02:35.537Z,4.60
2019-02-24T17:04:40.238Z,5.43
2019-02-24T17:06:44.012Z,4.97
2019-02-24T17:08:52.255Z,4.80
2019-02-24T17:10:53.164Z,4.80
2019-02-24T17:12:58.271Z,4.77
2019-02-24T17:15:02.513Z,4.57
2019-02-24T17:17:06.973Z,4.93
2019-02-24T17:19:11.618Z,4.97
2019-02-24T17:21:16.281Z,5.30
2019-02-24T17:23:20.109Z,4.10
2019-02-24T17:25:23.874Z,4.73
2019-02-24T17:27:27.668Z,4.50
2019-02-24T17:29:31.439Z,4.83
2019-02-24T17:31:35.227Z,4.50
2019-02-24T17:33:39.210Z,4.60
2019-02-24T17:35:43.181Z,5.20
2019-02-24T17:37:46.907Z,4.83
2019-02-24T17:39:50.696Z,4.40
2019-02-24T17:41:54.406Z,4.83
2019-02-24T17:43:59.784Z,5.03
2019-02-24T17:46:03.719Z,6.10
2019-02-24T17:48:08.594Z,4.93
2019-02-24T17:50:18.054Z,5.57
2019-02-24T17:52:22.239Z,6.67
2019-02-24T17:54:26.298Z,5.77
2019-02-24T17:56:30.253Z,6.13
2019-02-24T17:58:33.956Z,6.00
2019-02-24T18:00:52.847Z,6.03
2019-02-24T18:03:09.758Z,6.40
2019-02-24T18:05:13.597Z,6.43
2019-02-24T18:07:19.551Z,6.80
2019-02-24T18:09:23.382Z,6.23
2019-02-24T18:11:27.251Z,6.13
2019-02-24T18:13:31.017Z,5.83
2019-02-24T18:15:34.973Z,6.77
2019-02-24T18:17:38.842Z,5.40
2019-02-24T18:19:42.668Z,5.93
2019-02-24T18:21:46.356Z,5.90
2019-02-24T18:23:50.035Z,5.70
2019-02-24T18:25:53.879Z,5.77
2019-02-24T18:27:57.609Z,4.87
2019-02-24T18:30:01.659Z,5.57
2019-02-24T18:32:05.416Z,5.60
2019-02-24T18:34:09.257Z,5.47
2019-02-24T18:36:12.941Z,5.60
2019-02-24T18:38:16.756Z,5.27
2019-02-24T18:40:20.643Z,4.80
2019-02-24T18:42:24.665Z,5.37
2019-02-24T18:44:28.423Z,9.93
2019-02-24T18:46:32.240Z,7.50
2019-02-24T18:48:35.963Z,6.77
2019-02-24T18:50:40.011Z,6.57
2019-02-24T18:52:43.939Z,7.40
2019-02-24T18:54:47.843Z,7.27
2019-02-24T18:56:52.797Z,6.43
2019-02-24T18:58:57.298Z,6.13
2019-02-24T19:01:04.197Z,6.07
2019-02-24T19:03:09.013Z,7.10
2019-02-24T19:05:14.250Z,6.33
2019-02-24T19:07:20.475Z,6.97
2019-02-24T19:09:25.445Z,5.70
2019-02-24T19:11:36.667Z,6.40
2019-02-24T19:13:41.509Z,7.87
2019-02-24T19:15:45.903Z,7.93
2019-02-24T19:17:50.454Z,9.00
2019-02-24T19:19:55.599Z,9.73
2019-02-24T19:21:59.609Z,12.00
2019-02-24T19:24:04.551Z,12.33
2019-02-24T19:26:08.603Z,13.63
2019-02-24T19:28:13.656Z,13.00
2019-02-24T19:30:19.892Z,12.50
2019-02-24T19:32:24.653Z,12.20
2019-02-24T19:34:29.904Z,11.37
2019-02-24T19:36:34.417Z,14.50
2019-02-24T19:38:38.934Z,11.80
2019-02-24T19:40:42.860Z,11.90
2019-02-24T19:42:47.460Z,11.90
2019-02-24T19:44:51.442Z,12.20
2019-02-24T19:46:56.502Z,12.77
2019-02-24T19:49:00.578Z,11.90
2019-02-24T19:51:04.822Z,12.40
2019-02-24T19:53:09.914Z,11.43
2019-02-24T19:55:15.140Z,10.80
2019-02-24T19:57:21.420Z,11.53
2019-02-24T19:59:26.354Z,12.10
2019-02-24T20:01:30.228Z,11.93
2019-02-24T20:03:34.116Z,11.27
2019-02-24T20:05:38.528Z,12.43
2019-02-24T20:07:42.351Z,11.00
2019-02-24T20:09:47.391Z,9.93
2019-02-24T20:11:52.196Z,8.73
2019-02-24T20:13:57.047Z,8.83
2019-02-24T20:16:02.036Z,8.90
2019-02-24T20:18:06.868Z,10.50
2019-02-24T20:20:19.323Z,13.50
2019-02-24T20:22:25.097Z,18.00
2019-02-24T20:24:33.094Z,22.47
2019-02-24T20:26:34.655Z,24.63
2019-02-24T20:28:40.053Z,23.40
2019-02-24T20:30:44.860Z,16.40
2019-02-24T20:32:50.030Z,15.97
2019-02-24T20:34:53.894Z,10.77
2019-02-24T20:36:58.855Z,9.93
2019-02-24T20:39:02.716Z,9.20
2019-02-24T20:41:08.493Z,8.60
2019-02-24T20:43:12.749Z,10.13
2019-02-24T20:45:19.473Z,9.97
2019-02-24T20:47:24.593Z,12.80
2019-02-24T20:49:28.147Z,12.13
2019-02-24T20:51:33.065Z,10.73
2019-02-24T20:53:39.372Z,10.13
2019-02-24T20:55:44.814Z,11.10
2019-02-24T20:57:48.465Z,14.40
2019-02-24T20:59:53.595Z,14.40
2019-02-24T21:01:57.679Z,15.47
2019-02-24T21:04:02.463Z,16.23
2019-02-24T21:06:06.937Z,17.10
2019-02-24T21:08:10.771Z,17.90
2019-02-24T21:10:17.954Z,17.90
2019-02-24T21:12:22.264Z,19.57
2019-02-24T21:14:26.397Z,20.13
2019-02-24T21:16:32.047Z,19.00
2019-02-24T21:18:37.003Z,18.17
2019-02-24T21:20:40.941Z,18.60
2019-02-24T21:22:45.163Z,17.77
2019-02-24T21:24:49.149Z,18.40
2019-02-24T21:26:52.902Z,19.67
2019-02-24T21:28:57.244Z,18.57
2019-02-24T21:31:01.147Z,22.87
2019-02-24T21:33:06.889Z,24.40
2019-02-24T21:35:12.217Z,17.17
2019-02-24T21:37:17.888Z,17.47
2019-02-24T21:39:21.803Z,16.77
2019-02-24T21:41:25.813Z,16.50
2019-02-24T21:43:31.263Z,14.57
2019-02-24T21:45:34.906Z,15.60
2019-02-24T21:47:38.796Z,14.63
2019-02-24T21:49:42.506Z,14.73
2019-02-24T21:51:46.303Z,13.60
2019-02-24T21:53:49.970Z,13.67
2019-02-24T21:55:53.839Z,14.20
2019-02-24T21:57:57.706Z,14.03
2019-02-24T22:00:01.378Z,16.77
2019-02-24T22:02:05.169Z,19.90
2019-02-24T22:04:09.125Z,21.83
2019-02-24T22:06:12.906Z,19.27
2019-02-24T22:08:16.593Z,21.97
2019-02-24T22:10:20.444Z,23.17
2019-02-24T22:12:24.247Z,27.40
2019-02-24T22:14:28.355Z,24.23
2019-02-24T22:16:32.502Z,19.07
2019-02-24T22:18:36.390Z,19.07
2019-02-24T22:20:40.036Z,16.80
2019-02-24T22:22:44.131Z,13.47
2019-02-24T22:24:47.872Z,14.83
2019-02-24T22:26:52.664Z,14.40
2019-02-24T22:28:56.308Z,13.30
2019-02-24T22:31:00.151Z,13.30
2019-02-24T22:33:03.987Z,13.10
2019-02-24T22:35:09.052Z,11.70
2019-02-24T22:37:12.822Z,11.57
2019-02-24T22:39:16.590Z,10.67
2019-02-24T22:41:20.380Z,12.27
2019-02-24T22:43:24.162Z,11.73
2019-02-24T22:45:27.990Z,11.40
2019-02-24T22:47:32.135Z,12.50
2019-02-24T22:49:35.882Z,11.70
2019-02-24T22:51:39.673Z,12.17
2019-02-24T22:53:43.462Z,12.70
2019-02-24T22:55:47.221Z,12.47
2019-02-24T22:57:51.080Z,11.80
2019-02-24T22:59:55.281Z,11.03
2019-02-24T23:01:59.246Z,11.30
2019-02-24T23:04:05.262Z,11.00
2019-02-24T23:06:09.379Z,10.97
2019-02-24T23:08:13.265Z,10.10
2019-02-24T23:10:17.032Z,10.40
2019-02-24T23:12:20.908Z,10.10
2019-02-24T23:14:24.711Z,10.07
2019-02-24T23:16:28.475Z,9.50
2019-02-24T23:18:32.236Z,10.30
2019-02-24T23:20:36.110Z,9.90
2019-02-24T23:22:39.799Z,11.50
2019-02-24T23:24:44.459Z,11.90
2019-02-24T23:26:48.085Z,10.70
2019-02-24T23:28:51.821Z,9.80
2019-02-24T23:30:55.529Z,8.90
2019-02-24T23:32:59.345Z,9.97
2019-02-24T23:35:03.132Z,8.67
2019-02-24T23:37:06.869Z,8.87
2019-02-24T23:39:12.514Z,8.80
2019-02-24T23:41:16.332Z,9.03
2019-02-24T23:43:20.136Z,8.90
2019-02-24T23:45:24.033Z,9.80
2019-02-24T23:47:27.767Z,8.13
2019-02-24T23:49:31.470Z,8.20
2019-02-24T23:51:35.335Z,10.23
2019-02-24T23:53:39.168Z,12.00
2019-02-24T23:55:42.782Z,15.60
2019-02-24T23:57:46.541Z,15.40
2019-02-24T23:59:50.246Z,11.77
